Time;durP1;ratioP1;P1;durP2;ratioP2;P2;SDS_P1;SDS_P2;PMS_P1;PMS_P2;Temp;Humidity;BMP_temperature;BMP_pressure;BME280_temperature;BME280_humidity;BME280_pressure;Samples;Min_cycle;Max_cycle;Signal;HPM_P1;HPM_P2
2023/10/08 00:00:49;;;;;;;31.90;29.48;;;20.90;99.90;;;;;;5066003;28;20040;-65
2023/10/08 00:03:20;;;;;;;34.88;32.08;;;21.50;99.90;;;;;;5053953;28;20052;-65
2023/10/08 00:05:46;;;;;;;34.53;31.85;;;21.10;99.90;;;;;;5049228;28;20052;-65
2023/10/08 00:08:14;;;;;;;31.58;29.08;;;21.40;99.90;;;;;;5056152;28;20044;-65
2023/10/08 00:10:41;;;;;;;33.58;30.88;;;21.20;99.90;;;;;;5048613;28;20364;-65
2023/10/08 00:13:12;;;;;;;33.35;30.50;;;21.30;99.90;;;;;;5048632;28;20045;-65
2023/10/08 00:15:41;;;;;;;37.55;34.55;;;20.50;99.90;;;;;;5048372;28;20067;-65
2023/10/08 00:18:11;;;;;;;36.78;33.67;;;20.70;99.90;;;;;;5048401;28;20093;-65
2023/10/08 00:23:25;;;;;;;39.80;36.58;;;21.10;99.90;;;;;;5048026;28;20045;-65
2023/10/08 00:25:54;;;;;;;37.75;34.83;;;21.10;99.90;;;;;;5048219;28;20044;-65
2023/10/08 00:28:21;;;;;;;37.63;34.47;;;21.70;99.90;;;;;;5048592;28;20057;-65
2023/10/08 00:30:47;;;;;;;35.72;32.92;;;20.60;99.90;;;;;;5060674;28;20053;-65
2023/10/08 00:33:14;;;;;;;35.25;32.58;;;20.50;99.90;;;;;;5058043;28;20079;-65
2023/10/08 00:35:41;;;;;;;39.25;36.13;;;21.40;99.90;;;;;;5064470;28;20036;-65
2023/10/08 00:38:17;;;;;;;36.42;33.47;;;20.40;99.90;;;;;;5048293;28;20051;-65
2023/10/08 00:40:46;;;;;;;37.15;34.22;;;20.70;99.90;;;;;;5048250;28;20110;-65
2023/10/08 00:43:34;;;;;;;38.55;35.33;;;20.60;99.90;;;;;;5052890;28;20491;-65
2023/10/08 00:46:00;;;;;;;38.38;34.72;;;21.30;99.90;;;;;;5053977;28;20056;-65
2023/10/08 00:48:36;;;;;;;37.63;34.63;;;21.30;99.90;;;;;;5065745;28;20044;-65
2023/10/08 00:54:07;;;;;;;40.70;37.47;;;20.40;99.90;;;;;;5048425;28;20162;-65
2023/10/08 00:59:44;;;;;;;39.33;35.92;;;20.60;99.90;;;;;;5056869;28;20049;-65
2023/10/08 01:02:14;;;;;;;40.92;37.63;;;21.60;99.90;;;;;;5066753;28;20105;-65
2023/10/08 01:04:43;;;;;;;40.67;37.50;;;20.60;99.90;;;;;;5060502;28;20170;-65
2023/10/08 01:07:15;;;;;;;39.70;36.40;;;21.70;99.90;;;;;;5058120;28;20052;-66
2023/10/08 01:09:42;;;;;;;36.85;33.85;;;20.90;99.90;;;;;;5056762;28;20182;-65
2023/10/08 01:12:15;;;;;;;38.83;35.55;;;21.50;99.90;;;;;;5047336;28;20450;-65
2023/10/08 01:14:42;;;;;;;40.78;37.47;;;21.40;99.90;;;;;;5055760;28;20411;-65
2023/10/08 01:17:14;;;;;;;37.33;34.33;;;21.50;99.90;;;;;;5048830;28;20074;-65
2023/10/08 01:19:45;;;;;;;43.15;39.70;;;21.60;99.90;;;;;;5050204;28;20048;-65
2023/10/08 01:22:18;;;;;;;39.97;36.58;;;21.60;99.90;;;;;;5047672;28;20119;-65
2023/10/08 01:24:48;;;;;;;38.33;35.22;;;21.00;99.90;;;;;;5047131;28;20434;-65
2023/10/08 01:27:21;;;;;;;37.60;34.40;;;21.60;99.90;;;;;;5056354;28;20045;-65
2023/10/08 01:29:47;;;;;;;35.67;32.47;;;20.70;99.90;;;;;;5052359;28;20095;-65
2023/10/08 01:32:16;;;;;;;38.65;35.00;;;20.40;99.90;;;;;;5065946;28;20426;-65
2023/10/08 01:34:45;;;;;;;36.17;33.25;;;21.50;99.90;;;;;;5065291;28;20047;-65
2023/10/08 01:37:14;;;;;;;38.05;34.88;;;20.80;99.90;;;;;;5066112;28;20521;-65
2023/10/08 01:39:42;;;;;;;37.03;33.78;;;21.00;99.90;;;;;;5057525;28;20586;-66
2023/10/08 01:42:15;;;;;;;36.53;33.53;;;20.40;99.90;;;;;;5047525;28;20103;-65
2023/10/08 01:44:41;;;;;;;37.22;33.80;;;21.20;99.90;;;;;;5062386;28;20044;-66
2023/10/08 01:47:07;;;;;;;37.47;34.30;;;20.70;99.90;;;;;;5049982;28;20083;-65
2023/10/08 01:49:33;;;;;;;37.60;34.30;;;21.00;99.90;;;;;;5057088;28;20068;-65
2023/10/08 01:52:04;;;;;;;35.42;32.22;;;20.70;99.90;;;;;;5071407;28;20135;-65
2023/10/08 01:54:35;;;;;;;35.00;31.67;;;21.60;99.90;;;;;;5069765;28;20040;-64
2023/10/08 01:57:01;;;;;;;35.83;32.63;;;20.70;99.90;;;;;;5071028;28;20056;-65
2023/10/08 01:59:26;;;;;;;39.08;35.50;;;21.90;99.90;;;;;;5063768;28;20075;-64
2023/10/08 02:01:55;;;;;;;34.65;31.65;;;20.70;99.90;;;;;;5050898;28;20044;-64
2023/10/08 02:04:21;;;;;;;34.58;31.48;;;21.30;99.90;;;;;;5049999;28;20100;-63
2023/10/08 02:06:47;;;;;;;35.42;32.33;;;21.50;99.90;;;;;;5052722;28;20084;-63
2023/10/08 02:09:13;;;;;;;36.53;33.17;;;21.00;99.90;;;;;;5060539;28;20041;-62
2023/10/08 02:11:50;;;;;;;37.28;34.17;;;21.30;99.90;;;;;;5050787;28;20455;-63
2023/10/08 02:14:17;;;;;;;36.13;33.03;;;21.20;99.90;;;;;;5053371;28;20040;-63
2023/10/08 02:16:45;;;;;;;36.17;32.97;;;21.60;99.90;;;;;;5068801;28;20045;-64
2023/10/08 02:19:11;;;;;;;37.25;33.92;;;21.60;99.90;;;;;;5054248;28;20040;-63
2023/10/08 02:21:39;;;;;;;37.30;33.90;;;21.70;99.90;;;;;;5032987;28;20056;-62
2023/10/08 02:24:07;;;;;;;36.67;33.33;;;21.60;99.90;;;;;;5051050;28;20120;-64
2023/10/08 02:26:34;;;;;;;37.08;33.92;;;20.80;99.90;;;;;;5050706;28;20127;-63
2023/10/08 02:29:10;;;;;;;35.97;32.78;;;21.70;99.90;;;;;;5062479;28;20086;-64
2023/10/08 02:31:39;;;;;;;35.50;32.50;;;20.90;99.90;;;;;;5050970;28;20053;-63
2023/10/08 02:34:09;;;;;;;36.28;33.17;;;21.80;99.90;;;;;;5054374;28;20037;-65
2023/10/08 02:36:40;;;;;;;35.13;32.13;;;21.00;99.90;;;;;;5069927;28;20452;-62
2023/10/08 02:39:13;;;;;;;34.67;31.67;;;21.10;99.90;;;;;;5050469;28;20037;-63
2023/10/08 02:41:45;;;;;;;36.63;33.25;;;20.90;99.90;;;;;;5070355;28;20115;-64
2023/10/08 02:44:14;;;;;;;35.03;31.67;;;21.80;99.90;;;;;;5068849;28;20111;-63
2023/10/08 02:46:47;;;;;;;34.80;31.65;;;21.30;99.90;;;;;;5067144;28;20036;-64
2023/10/08 02:49:16;;;;;;;35.85;32.58;;;21.00;99.90;;;;;;5068414;28;20041;-63
2023/10/08 02:51:44;;;;;;;34.47;31.35;;;21.40;99.90;;;;;;5065730;28;20114;-63
2023/10/08 02:54:18;;;;;;;35.17;32.00;;;21.10;99.90;;;;;;5068946;28;20094;-63
2023/10/08 02:56:51;;;;;;;35.45;32.20;;;21.80;99.90;;;;;;5068143;28;20040;-63
2023/10/08 02:59:17;;;;;;;36.85;33.30;;;21.60;99.90;;;;;;5069035;28;20044;-63
2023/10/08 03:01:42;;;;;;;35.70;32.35;;;21.30;99.90;;;;;;5067923;28;20051;-64
2023/10/08 03:04:17;;;;;;;36.05;32.60;;;21.30;99.90;;;;;;5070333;28;20052;-66
2023/10/08 03:06:45;;;;;;;36.65;33.28;;;21.10;99.90;;;;;;5068813;28;20052;-65
2023/10/08 03:09:13;;;;;;;36.47;33.13;;;21.00;99.90;;;;;;5051197;28;20099;-66
2023/10/08 03:11:39;;;;;;;35.00;31.67;;;21.20;99.90;;;;;;5049583;28;20048;-66
2023/10/08 03:14:14;;;;;;;34.78;31.58;;;21.40;99.90;;;;;;5062538;28;20040;-66
2023/10/08 03:16:40;;;;;;;36.20;32.78;;;21.40;99.90;;;;;;5051734;28;20037;-66
2023/10/08 03:19:06;;;;;;;34.67;31.48;;;21.00;99.90;;;;;;5049513;28;20493;-66
2023/10/08 03:24:23;;;;;;;35.67;32.58;;;21.50;99.90;;;;;;5069492;28;20840;-66
2023/10/08 03:26:55;;;;;;;34.47;31.15;;;21.00;99.90;;;;;;5049413;28;20045;-66
2023/10/08 03:29:21;;;;;;;34.30;30.90;;;21.00;99.90;;;;;;5063239;28;20533;-66
2023/10/08 03:34:13;;;;;;;33.85;30.83;;;21.80;99.90;;;;;;5057226;28;20060;-65
2023/10/08 03:36:44;;;;;;;33.92;30.75;;;21.20;99.90;;;;;;5055503;28;20041;-65
2023/10/08 03:39:14;;;;;;;34.95;31.60;;;21.00;99.90;;;;;;5061970;28;20168;-66
2023/10/08 03:41:43;;;;;;;33.85;30.60;;;21.80;99.90;;;;;;5068196;28;20194;-66
2023/10/08 03:44:16;;;;;;;34.40;31.30;;;21.00;99.90;;;;;;5062802;28;20059;-66
2023/10/08 03:46:43;;;;;;;34.30;31.17;;;21.60;99.90;;;;;;5062841;28;20102;-65
2023/10/08 03:49:31;;;;;;;34.10;31.10;;;21.60;99.90;;;;;;5068936;28;20098;-66
2023/10/08 03:51:57;;;;;;;33.00;30.05;;;21.30;99.90;;;;;;5067357;28;20465;-66
2023/10/08 03:54:35;;;;;;;34.60;31.35;;;21.10;99.90;;;;;;5057401;28;20032;-66
2023/10/08 03:57:04;;;;;;;35.03;31.83;;;21.50;99.90;;;;;;5065166;28;20076;-66
2023/10/08 03:59:30;;;;;;;35.40;32.20;;;21.80;99.90;;;;;;5068771;28;20044;-66
2023/10/08 04:04:51;;;;;;;34.95;31.70;;;21.30;99.90;;;;;;5066729;28;20052;-66
2023/10/08 04:07:25;;;;;;;34.92;31.48;;;20.90;99.90;;;;;;5065517;28;20071;-66
2023/10/08 04:10:04;;;;;;;33.30;30.20;;;20.90;99.90;;;;;;5060843;28;20048;-66
2023/10/08 04:12:31;;;;;;;35.63;32.13;;;21.80;99.90;;;;;;5068270;28;20414;-66
2023/10/08 04:14:57;;;;;;;34.42;31.20;;;21.60;99.90;;;;;;5055229;28;20050;-65
2023/10/08 04:17:23;;;;;;;35.20;31.90;;;21.80;99.90;;;;;;5050886;28;20426;-65
2023/10/08 04:19:48;;;;;;;33.97;30.38;;;20.80;99.90;;;;;;5067347;28;20047;-65
2023/10/08 04:22:17;;;;;;;33.90;30.75;;;21.80;99.90;;;;;;5060750;28;20115;-65
2023/10/08 04:24:43;;;;;;;35.42;32.00;;;20.90;99.90;;;;;;5064478;28;20044;-65
2023/10/08 04:27:09;;;;;;;35.40;32.20;;;21.10;99.90;;;;;;5066659;28;20098;-65
2023/10/08 04:29:37;;;;;;;34.10;30.85;;;21.20;99.90;;;;;;5048042;28;20041;-65
2023/10/08 04:32:07;;;;;;;32.65;29.83;;;20.80;99.90;;;;;;5064147;28;20115;-65
2023/10/08 04:34:34;;;;;;;33.58;30.50;;;20.80;99.90;;;;;;5068245;28;20040;-65
2023/10/08 04:37:11;;;;;;;35.67;32.08;;;21.50;99.90;;;;;;5052362;28;20638;-65
2023/10/08 04:39:39;;;;;;;36.35;32.75;;;20.70;99.90;;;;;;5050145;28;20059;-65
2023/10/08 04:42:11;;;;;;;36.55;32.78;;;20.70;99.90;;;;;;5048161;28;20358;-66
2023/10/08 04:44:40;;;;;;;37.33;33.70;;;21.30;99.90;;;;;;5047952;28;20107;-65
2023/10/08 04:47:17;;;;;;;37.90;33.88;;;21.90;99.90;;;;;;5047935;28;20323;-65
2023/10/08 04:49:46;;;;;;;37.42;33.70;;;20.80;99.90;;;;;;5066443;28;20052;-65
2023/10/08 04:52:15;;;;;;;37.75;33.95;;;21.50;99.90;;;;;;5060460;28;20387;-65
2023/10/08 04:54:51;;;;;;;37.17;33.47;;;20.80;99.90;;;;;;5047966;28;20130;-65
2023/10/08 04:57:17;;;;;;;37.30;33.45;;;20.80;99.90;;;;;;5057037;28;20102;-65
2023/10/08 04:59:46;;;;;;;37.03;33.20;;;21.30;99.90;;;;;;5053011;28;20068;-65
2023/10/08 05:07:40;;;;;;;40.20;34.38;;;21.10;99.90;;;;;;5050215;28;20049;-65
2023/10/08 05:12:37;;;;;;;38.78;32.25;;;21.60;99.90;;;;;;5049060;28;20045;-65
2023/10/08 05:17:58;;;;;;;39.33;31.73;;;21.40;99.90;;;;;;5048669;28;20506;-65
2023/10/08 05:23:05;;;;;;;36.20;31.35;;;21.40;99.90;;;;;;5066634;28;20044;-65
2023/10/08 05:25:57;;;;;;;36.10;32.33;;;21.50;99.90;;;;;;5053280;28;20041;-66
2023/10/08 05:28:26;;;;;;;37.58;32.42;;;21.50;99.90;;;;;;5055102;28;20131;-65
2023/10/08 05:36:28;;;;;;;36.67;32.78;;;20.90;99.90;;;;;;5045871;28;20040;-65
2023/10/08 05:41:39;;;;;;;40.78;35.80;;;20.80;99.90;;;;;;5053457;28;20132;-66
2023/10/08 06:08:48;;;;;;;37.55;33.35;;;21.10;99.90;;;;;;5061312;28;20383;-66
2023/10/08 06:18:28;;;;;;;38.42;34.22;;;20.70;99.90;;;;;;5047064;28;20178;-66
2023/10/08 06:20:59;;;;;;;39.40;35.22;;;21.30;99.90;;;;;;5056081;28;20135;-66
2023/10/08 06:23:28;;;;;;;40.45;34.42;;;20.90;99.90;;;;;;5050111;28;20033;-66
2023/10/08 06:25:57;;;;;;;38.40;34.25;;;21.10;99.90;;;;;;5049161;28;20355;-66
2023/10/08 06:28:25;;;;;;;37.80;33.67;;;21.10;99.90;;;;;;5055400;28;20041;-66
2023/10/08 06:30:53;;;;;;;36.72;32.97;;;21.10;99.90;;;;;;5053415;28;20486;-66
2023/10/08 06:33:19;;;;;;;37.47;33.63;;;21.30;99.90;;;;;;5052496;28;20041;-63
2023/10/08 06:35:56;;;;;;;38.67;34.65;;;21.00;99.90;;;;;;5050955;28;20037;-64
2023/10/08 06:38:24;;;;;;;37.00;32.85;;;21.30;99.90;;;;;;5056808;28;20052;-64
2023/10/08 06:40:52;;;;;;;38.00;33.90;;;21.00;99.90;;;;;;5056649;28;20048;-63
2023/10/08 06:43:24;;;;;;;40.05;32.92;;;21.20;99.90;;;;;;5043813;28;20140;-64
2023/10/08 06:45:53;;;;;;;35.88;32.33;;;20.70;99.90;;;;;;5062237;28;20044;-63
2023/10/08 06:48:25;;;;;;;38.38;33.10;;;20.60;99.90;;;;;;5050291;28;20491;-63
2023/10/08 06:50:56;;;;;;;36.53;31.75;;;20.70;99.90;;;;;;5053366;28;20195;-64
2023/10/08 06:53:22;;;;;;;36.55;32.65;;;21.20;99.90;;;;;;5050377;28;20519;-63
2023/10/08 06:55:54;;;;;;;43.08;34.85;;;20.80;99.90;;;;;;5050895;28;20427;-64
2023/10/08 06:58:20;;;;;;;38.40;33.50;;;21.20;99.90;;;;;;5062715;28;20040;-64
2023/10/08 07:00:48;;;;;;;37.38;33.38;;;21.50;99.90;;;;;;5055900;28;20044;-63
2023/10/08 07:03:15;;;;;;;37.22;33.47;;;21.30;99.90;;;;;;5062388;28;20036;-63
2023/10/08 07:05:54;;;;;;;40.25;34.08;;;21.30;99.90;;;;;;5060853;28;20061;-64
2023/10/08 07:08:24;;;;;;;39.08;33.05;;;21.00;99.90;;;;;;5050081;28;20061;-64
2023/10/08 07:10:53;;;;;;;36.45;32.65;;;21.20;99.90;;;;;;5053909;28;20040;-64
2023/10/08 07:13:21;;;;;;;36.45;30.35;;;20.80;99.90;;;;;;5060742;28;20422;-63
2023/10/08 07:15:49;;;;;;;33.42;29.83;;;21.20;99.90;;;;;;5054920;28;20152;-65
2023/10/08 07:18:15;;;;;;;34.55;30.90;;;20.90;99.90;;;;;;5051063;28;20404;-63
2023/10/08 07:20:45;;;;;;;36.30;32.28;;;21.10;99.90;;;;;;5058653;28;20040;-63
2023/10/08 07:23:24;;;;;;;33.97;30.58;;;21.30;99.90;;;;;;5058668;28;20049;-63
2023/10/08 07:26:10;;;;;;;36.53;31.15;;;20.90;99.90;;;;;;5049629;28;20131;-64
2023/10/08 07:28:40;;;;;;;37.08;32.55;;;20.80;99.90;;;;;;5055640;28;20044;-63
2023/10/08 07:31:16;;;;;;;38.28;34.22;;;21.30;99.90;;;;;;5057265;28;20321;-64
2023/10/08 07:33:43;;;;;;;35.03;31.42;;;21.30;99.90;;;;;;5061910;28;20449;-66
2023/10/08 07:36:14;;;;;;;33.10;29.77;;;20.90;99.90;;;;;;5061296;28;20440;-63
2023/10/08 07:38:43;;;;;;;33.80;30.38;;;21.40;99.90;;;;;;5059422;28;20045;-64
2023/10/08 07:41:12;;;;;;;36.85;33.25;;;21.00;99.90;;;;;;5053597;28;20044;-63
2023/10/08 07:43:39;;;;;;;36.85;33.10;;;21.60;99.90;;;;;;5064210;28;20032;-65
2023/10/08 07:46:05;;;;;;;37.00;33.15;;;21.30;99.90;;;;;;5061651;28;20411;-64
2023/10/08 07:48:31;;;;;;;36.63;32.80;;;21.30;99.90;;;;;;5057005;28;20040;-65
2023/10/08 07:50:57;;;;;;;38.85;33.65;;;22.00;99.90;;;;;;5055674;28;20045;-65
2023/10/08 07:53:37;;;;;;;36.60;32.92;;;21.50;99.90;;;;;;5048415;28;20059;-65
2023/10/08 07:56:10;;;;;;;41.10;32.63;;;21.90;99.90;;;;;;5049152;28;20041;-65
2023/10/08 07:58:36;;;;;;;36.13;32.17;;;21.90;99.90;;;;;;5055590;28;20070;-65
2023/10/08 08:01:07;;;;;;;35.65;32.25;;;21.50;99.90;;;;;;5050269;28;20143;-66
2023/10/08 08:03:41;;;;;;;34.42;30.75;;;22.60;99.90;;;;;;5057853;28;20120;-66
2023/10/08 08:06:07;;;;;;;33.08;29.77;;;21.80;99.90;;;;;;5059596;28;20040;-66
2023/10/08 08:08:34;;;;;;;33.88;28.05;;;21.60;99.90;;;;;;5063147;28;20068;-66
2023/10/08 08:11:11;;;;;;;38.55;31.05;;;22.00;99.90;;;;;;5066076;28;20406;-66
2023/10/08 08:13:38;;;;;;;33.70;30.00;;;22.20;99.90;;;;;;5059565;28;20041;-66
2023/10/08 08:16:16;;;;;;;30.33;27.00;;;22.10;99.90;;;;;;5048828;28;20606;-66
2023/10/08 08:18:55;;;;;;;29.65;26.55;;;22.10;99.90;;;;;;5055066;28;20041;-66
2023/10/08 08:21:23;;;;;;;29.52;26.73;;;21.90;99.90;;;;;;5053562;28;20044;-66
2023/10/08 08:23:49;;;;;;;30.45;27.40;;;21.90;99.90;;;;;;5051135;28;20041;-65
2023/10/08 08:26:26;;;;;;;27.02;24.13;;;21.90;99.90;;;;;;5054718;28;20497;-68
2023/10/08 08:28:57;;;;;;;29.08;25.95;;;22.70;99.90;;;;;;5055343;28;20665;-66
2023/10/08 08:31:24;;;;;;;26.75;23.95;;;22.00;99.90;;;;;;5052807;28;20036;-65
2023/10/08 08:33:53;;;;;;;26.13;23.52;;;22.10;99.90;;;;;;5049168;28;20041;-65
2023/10/08 08:36:20;;;;;;;24.70;22.05;;;22.00;99.90;;;;;;5056387;28;20086;-65
2023/10/08 08:38:47;;;;;;;23.60;21.20;;;22.00;99.90;;;;;;5052807;28;20498;-65
2023/10/08 08:41:17;;;;;;;23.92;21.55;;;22.20;99.90;;;;;;5059024;28;20116;-65
2023/10/08 08:43:59;;;;;;;24.27;21.77;;;22.10;99.90;;;;;;5058717;28;20067;-65
2023/10/08 08:46:37;;;;;;;25.15;21.85;;;22.00;99.90;;;;;;5059051;28;20041;-65
2023/10/08 08:49:07;;;;;;;28.58;22.70;;;22.10;99.90;;;;;;5054281;28;20117;-65
2023/10/08 08:51:36;;;;;;;23.58;21.08;;;22.40;99.90;;;;;;5049344;28;20052;-65
2023/10/08 08:54:08;;;;;;;23.20;20.75;;;22.30;99.90;;;;;;5055323;28;20087;-68
2023/10/08 08:56:36;;;;;;;26.40;22.48;;;22.10;99.90;;;;;;5057063;28;20039;-70
2023/10/08 08:59:04;;;;;;;25.80;22.58;;;22.30;99.90;;;;;;5053231;28;20044;-71
2023/10/08 09:01:30;;;;;;;24.70;22.08;;;22.40;99.90;;;;;;5052932;28;20041;-70
2023/10/08 09:04:05;;;;;;;23.95;21.35;;;22.20;99.90;;;;;;5055864;28;20044;-69
2023/10/08 09:06:40;;;;;;;27.67;20.25;;;22.10;99.90;;;;;;5050966;28;20041;-69
2023/10/08 09:09:22;;;;;;;26.70;21.58;;;22.30;99.90;;;;;;5058832;28;20129;-69
2023/10/08 09:11:51;;;;;;;23.33;20.50;;;22.20;99.90;;;;;;5046076;28;20131;-69
2023/10/08 09:14:29;;;;;;;21.60;19.40;;;22.20;99.90;;;;;;5048884;28;20045;-69
2023/10/08 09:16:56;;;;;;;23.13;20.05;;;22.30;99.90;;;;;;5056822;28;20045;-69
2023/10/08 09:19:24;;;;;;;23.65;21.25;;;22.50;99.90;;;;;;5053278;28;20032;-68
2023/10/08 09:22:08;;;;;;;22.05;19.70;;;22.50;99.90;;;;;;5050364;28;20049;-68
2023/10/08 09:24:39;;;;;;;20.60;18.55;;;22.80;99.90;;;;;;5038401;28;20584;-68
2023/10/08 09:27:15;;;;;;;23.40;19.67;;;22.50;99.90;;;;;;5052243;28;20052;-67
2023/10/08 09:29:42;;;;;;;23.70;21.08;;;22.70;99.90;;;;;;5055955;28;20053;-66
2023/10/08 09:32:23;;;;;;;23.00;20.75;;;22.40;99.90;;;;;;5050553;28;20407;-66
2023/10/08 09:34:50;;;;;;;22.10;19.98;;;22.60;99.90;;;;;;5055273;28;20041;-70
2023/10/08 09:37:17;;;;;;;22.60;19.20;;;22.50;99.90;;;;;;5060813;28;20055;-67
2023/10/08 09:39:45;;;;;;;22.58;18.52;;;22.60;99.90;;;;;;5057650;28;20083;-70
2023/10/08 09:42:13;;;;;;;23.92;21.42;;;22.60;99.90;;;;;;5050267;28;20514;-66
2023/10/08 09:44:39;;;;;;;35.95;18.85;;;22.70;99.90;;;;;;5050514;28;20047;-65
2023/10/08 09:47:06;;;;;;;22.30;18.42;;;22.60;99.90;;;;;;5064790;28;20041;-67
2023/10/08 09:49:45;;;;;;;21.58;19.50;;;22.70;99.90;;;;;;5051704;28;20045;-66
2023/10/08 09:52:15;;;;;;;22.73;20.40;;;22.60;99.90;;;;;;5050493;28;20056;-66
2023/10/08 09:54:56;;;;;;;22.38;19.63;;;22.80;99.90;;;;;;5053481;28;20080;-66
2023/10/08 09:57:25;;;;;;;20.88;18.17;;;22.70;99.90;;;;;;5063475;28;20047;-68
2023/10/08 09:59:51;;;;;;;22.15;19.85;;;22.80;1.00;;;;;;5048736;28;20071;-64
2023/10/08 10:02:18;;;;;;;21.77;19.38;;;22.70;99.90;;;;;;5053771;28;20036;-64
2023/10/08 10:04:45;;;;;;;25.33;19.27;;;22.80;99.90;;;;;;5049174;28;20075;-62
2023/10/08 10:07:12;;;;;;;23.00;20.33;;;22.80;99.90;;;;;;5063907;28;20135;-62
2023/10/08 10:09:42;;;;;;;23.00;18.83;;;22.80;16.80;;;;;;5056532;28;20060;-63
2023/10/08 10:12:11;;;;;;;20.63;18.55;;;23.00;99.90;;;;;;5052012;28;20118;-63
2023/10/08 10:14:48;;;;;;;24.98;17.77;;;22.60;96.80;;;;;;5053573;28;20033;-63
2023/10/08 10:17:16;;;;;;;21.85;19.35;;;22.80;89.90;;;;;;5051043;28;20532;-64
2023/10/08 10:19:45;;;;;;;20.42;18.33;;;23.50;99.90;;;;;;5061409;28;20525;-63
2023/10/08 10:22:27;;;;;;;16.20;14.48;;;22.90;17.50;;;;;;5068487;28;20063;-63
2023/10/08 10:24:53;;;;;;;19.70;15.43;;;22.90;99.90;;;;;;5051038;28;20041;-62
2023/10/08 10:27:18;;;;;;;17.40;14.52;;;23.00;1.00;;;;;;5063986;28;20171;-63
2023/10/08 10:29:45;;;;;;;17.98;15.70;;;23.10;99.90;;;;;;5064631;28;20413;-65
2023/10/08 10:32:15;;;;;;;18.75;15.13;;;23.10;21.20;;;;;;5065688;28;20047;-66
2023/10/08 10:34:43;;;;;;;17.27;14.65;;;23.20;99.90;;;;;;5063785;28;20037;-66
2023/10/08 10:37:09;;;;;;;17.20;14.60;;;23.10;99.90;;;;;;5056777;28;20073;-66
2023/10/08 10:39:39;;;;;;;17.23;15.57;;;23.10;21.80;;;;;;5066162;28;20540;-64
2023/10/08 10:42:06;;;;;;;20.27;15.55;;;23.10;1.00;;;;;;5057286;28;20036;-65
2023/10/08 10:44:36;;;;;;;18.77;16.88;;;23.10;99.90;;;;;;5051755;28;20037;-64
2023/10/08 10:49:53;;;;;;;17.25;15.43;;;23.00;99.90;;;;;;5067893;28;20048;-64
2023/10/08 10:52:32;;;;;;;;;;;22.90;19.70;;;;;;5053968;28;20131;-64
2023/10/08 10:57:55;;;;;;;18.08;16.27;;;22.90;1.00;;;;;;5057922;28;20048;-63
2023/10/08 11:03:02;;;;;;;;;;;22.90;99.90;;;;;;5053049;28;20040;-60
2023/10/08 11:05:37;;;;;;;15.63;13.95;;;23.60;99.90;;;;;;5056579;28;20348;-61
2023/10/08 11:08:05;;;;;;;16.80;14.75;;;23.00;99.90;;;;;;5061939;28;20539;-62
2023/10/08 11:10:38;;;;;;;15.85;14.25;;;23.00;69.60;;;;;;5054566;28;20053;-62
2023/10/08 11:13:14;;;;;;;17.40;15.70;;;23.10;9.50;;;;;;5054211;28;20489;-66
2023/10/08 11:15:40;;;;;;;18.98;17.15;;;23.90;1.00;;;;;;5065560;28;20044;-68
2023/10/08 11:18:16;;;;;;;17.85;14.90;;;23.30;92.60;;;;;;5066381;28;20028;-69
2023/10/08 11:20:45;;;;;;;20.90;14.50;;;23.90;15.80;;;;;;5056384;28;20044;-71
2023/10/08 11:23:35;;;;;;;18.40;15.85;;;23.50;1.00;;;;;;5051267;28;20086;-67
2023/10/08 11:26:06;;;;;;;18.55;14.48;;;23.40;1.00;;;;;;5059352;28;20123;-66
2023/10/08 11:28:41;;;;;;;16.95;14.75;;;23.50;99.90;;;;;;5059094;28;20047;-68
2023/10/08 11:31:10;;;;;;;16.33;14.73;;;23.40;99.90;;;;;;5066815;28;20126;-67
2023/10/08 11:33:41;;;;;;;20.13;15.50;;;23.60;99.90;;;;;;5055415;28;20047;-66
2023/10/08 11:36:27;;;;;;;20.63;18.48;;;23.40;99.90;;;;;;5057278;28;20384;-68
2023/10/08 11:38:53;;;;;;;16.43;14.80;;;23.50;99.90;;;;;;5056687;28;20059;-67
2023/10/08 11:41:22;;;;;;;20.92;18.70;;;23.70;99.90;;;;;;5059829;28;20047;-67
2023/10/08 11:43:57;;;;;;;18.75;16.63;;;23.30;99.90;;;;;;5061985;28;20045;-69
2023/10/08 11:46:32;;;;;;;21.35;18.20;;;23.50;99.90;;;;;;5049171;28;20036;-67
2023/10/08 11:49:03;;;;;;;18.92;17.00;;;23.40;1.00;;;;;;5048468;28;20079;-67
2023/10/08 11:51:33;;;;;;;20.08;17.90;;;23.40;1.00;;;;;;5057024;28;20056;-68
2023/10/08 11:54:00;;;;;;;20.52;17.52;;;23.30;1.00;;;;;;5051776;28;20478;-68
2023/10/08 11:56:27;;;;;;;21.92;18.17;;;23.50;27.10;;;;;;5048983;28;20525;-67
2023/10/08 11:58:56;;;;;;;21.75;19.55;;;23.30;99.90;;;;;;5052400;28;20578;-67
2023/10/08 12:01:23;;;;;;;20.52;17.77;;;23.50;99.90;;;;;;5055961;28;20498;-67
2023/10/08 12:03:49;;;;;;;18.98;16.60;;;23.70;99.90;;;;;;5062278;28;20044;-67
2023/10/08 12:06:18;;;;;;;19.65;16.60;;;23.30;99.90;;;;;;5061210;28;20048;-68
2023/10/08 12:08:47;;;;;;;18.00;15.88;;;23.30;99.90;;;;;;5059904;28;20056;-65
2023/10/08 12:11:15;;;;;;;21.63;17.73;;;23.40;99.90;;;;;;5056111;28;20577;-67
2023/10/08 12:13:45;;;;;;;18.38;16.48;;;23.50;99.90;;;;;;5048993;28;20112;-67
2023/10/08 12:16:23;;;;;;;15.82;14.20;;;23.40;1.00;;;;;;5062409;28;20029;-67
2023/10/08 12:18:53;;;;;;;14.52;12.57;;;23.60;1.00;;;;;;5058676;28;20595;-67
2023/10/08 12:21:20;;;;;;;19.50;17.60;;;23.50;99.90;;;;;;5064772;28;20049;-65
2023/10/08 12:23:46;;;;;;;16.40;14.40;;;23.50;99.90;;;;;;5057201;28;20855;-61
2023/10/08 12:26:15;;;;;;;16.25;14.52;;;23.60;35.10;;;;;;5057870;28;20048;-61
2023/10/08 12:28:44;;;;;;;16.90;15.25;;;23.80;1.00;;;;;;5048264;28;20049;-61
2023/10/08 12:31:15;;;;;;;16.42;14.68;;;23.50;1.00;;;;;;5051585;28;20133;-62
2023/10/08 12:33:43;;;;;;;16.60;15.18;;;23.50;1.00;;;;;;5057432;28;20032;-62
2023/10/08 12:36:13;;;;;;;17.75;16.15;;;23.60;1.00;;;;;;5050426;28;20049;-62
2023/10/08 12:38:43;;;;;;;58.75;20.05;;;23.60;1.00;;;;;;5051628;28;20040;-63
2023/10/08 12:41:12;;;;;;;20.10;15.70;;;23.50;1.00;;;;;;5048321;28;20066;-61
2023/10/08 12:43:39;;;;;;;17.55;16.05;;;23.60;1.00;;;;;;5057664;28;20047;-61
2023/10/08 12:46:10;;;;;;;23.20;16.40;;;23.60;1.00;;;;;;5056818;28;20045;-62
2023/10/08 12:48:36;;;;;;;16.27;13.52;;;23.70;1.00;;;;;;5063609;28;20127;-62
2023/10/08 12:51:05;;;;;;;17.10;15.60;;;23.60;1.00;;;;;;5066218;28;20113;-60
2023/10/08 12:53:34;;;;;;;17.50;15.80;;;23.60;99.90;;;;;;5059815;28;20070;-61
2023/10/08 12:56:06;;;;;;;18.65;16.92;;;23.60;99.90;;;;;;5050113;28;20040;-60
2023/10/08 12:58:48;;;;;;;16.63;14.85;;;23.50;99.90;;;;;;5053029;28;20056;-61
2023/10/08 13:01:19;;;;;;;17.20;15.45;;;23.50;99.90;;;;;;5054807;28;20111;-61
2023/10/08 13:03:49;;;;;;;18.70;16.70;;;23.50;99.90;;;;;;5054062;28;20053;-61
2023/10/08 13:06:28;;;;;;;17.10;15.38;;;23.50;99.90;;;;;;5059232;28;20055;-60
2023/10/08 13:08:54;;;;;;;22.75;17.98;;;23.50;99.90;;;;;;5068119;28;20503;-61
2023/10/08 13:11:23;;;;;;;17.85;15.35;;;23.40;99.90;;;;;;5066892;28;20044;-61
2023/10/08 13:13:50;;;;;;;21.10;14.90;;;23.50;99.90;;;;;;5059403;28;20067;-60
2023/10/08 13:16:16;;;;;;;17.58;15.88;;;24.20;99.90;;;;;;5058010;28;20033;-61
2023/10/08 13:18:43;;;;;;;17.33;15.52;;;23.50;99.90;;;;;;5055899;28;20390;-62
2023/10/08 13:21:09;;;;;;;22.48;15.00;;;23.60;99.90;;;;;;5063108;28;20040;-60
2023/10/08 13:23:35;;;;;;;20.92;17.48;;;23.70;99.90;;;;;;5053540;28;20041;-61
2023/10/08 13:26:04;;;;;;;19.63;17.80;;;23.60;99.90;;;;;;5050719;28;20090;-61
2023/10/08 13:28:33;;;;;;;16.55;15.00;;;23.60;99.90;;;;;;5048397;28;20593;-60
2023/10/08 13:31:11;;;;;;;20.00;16.35;;;23.60;99.90;;;;;;5057258;28;20082;-61
2023/10/08 13:33:48;;;;;;;23.63;18.40;;;23.50;99.90;;;;;;5053568;28;20826;-61
2023/10/08 13:36:15;;;;;;;19.45;17.55;;;23.50;99.90;;;;;;5059583;28;20067;-61
2023/10/08 13:38:41;;;;;;;20.90;18.75;;;23.50;99.90;;;;;;5056417;28;20045;-58
2023/10/08 13:41:17;;;;;;;26.95;20.83;;;23.40;99.90;;;;;;5048294;28;20041;-63
2023/10/08 13:43:48;;;;;;;19.98;18.00;;;23.50;99.90;;;;;;5059917;28;20041;-68
2023/10/08 13:46:16;;;;;;;22.80;20.48;;;23.40;1.00;;;;;;5056207;28;20126;-58
2023/10/08 13:48:46;;;;;;;19.33;17.52;;;23.40;79.20;;;;;;5061727;28;20084;-60
2023/10/08 13:51:20;;;;;;;19.67;17.58;;;23.30;98.60;;;;;;5055419;28;20053;-61
2023/10/08 13:53:52;;;;;;;21.52;19.30;;;23.20;69.40;;;;;;5060034;28;20516;-60
2023/10/08 13:56:20;;;;;;;19.75;17.65;;;23.20;99.90;;;;;;5057375;28;20053;-60
2023/10/08 13:58:49;;;;;;;21.88;19.67;;;23.10;99.90;;;;;;5056915;28;20501;-60
2023/10/08 14:01:21;;;;;;;19.63;17.60;;;23.20;99.90;;;;;;5058021;28;20048;-60